Time;durP1;ratioP1;P1;durP2;ratioP2;P2;SDS_P1;SDS_P2;PMS_P1;PMS_P2;Temp;Humidity;BMP_temperature;BMP_pressure;BME280_temperature;BME280_humidity;BME280_pressure;Samples;Min_cycle;Max_cycle;Signal;HPM_P1;HPM_P2
2022/08/20 00:01:21;;;;;;;;;;;;;;;17.59;100.00;101538.59;5018668;28;19932;-80
2022/08/20 00:03:46;;;;;;;;;;;;;;;17.59;100.00;101541.28;5018598;28;19960;-80
2022/08/20 00:06:13;;;;;;;;;;;;;;;17.60;100.00;101540.31;5017455;28;19925;-80
2022/08/20 00:08:39;;;;;;;;;;;;;;;17.59;100.00;101534.09;5018913;28;19927;-79
2022/08/20 00:11:08;;;;;;;;;;;;;;;17.61;100.00;101534.00;5001870;28;19931;-82
2022/08/20 00:13:42;;;;;;;;;;;;;;;17.61;100.00;101536.69;5014436;28;19928;-80
2022/08/20 00:16:09;;;;;;;;;;;;;;;17.60;100.00;101543.00;5018016;28;19925;-80
2022/08/20 00:18:36;;;;;;;;;;;;;;;17.60;100.00;101537.63;5018202;28;20043;-81
2022/08/20 00:21:02;;;;;;;;;;;;;;;17.59;100.00;101534.09;4983876;28;19932;-80
2022/08/20 00:23:27;;;;;;;;;;;;;;;17.60;100.00;101534.97;5017555;28;20459;-80
2022/08/20 00:25:52;;;;;;;;;;;;;;;17.57;100.00;101541.38;5016426;28;19967;-80
2022/08/20 00:28:18;;;;;;;;;;;;;;;17.56;100.00;101538.78;5019031;28;19920;-81
2022/08/20 00:30:44;;;;;;;;;;;;;;;17.55;100.00;101534.41;5006574;28;20365;-81
2022/08/20 00:33:15;;;;;;;;;;;;;;;17.56;100.00;101534.31;5003198;28;19955;-80
2022/08/20 00:35:42;;;;;;;;;;;;;;;17.56;100.00;101534.31;5021017;28;19925;-80
2022/08/20 00:38:07;;;;;;;;;;;;;;;17.56;100.00;101538.78;5000461;28;19921;-80
2022/08/20 00:40:41;;;;;;;;;;;;;;;17.56;100.00;101547.69;5011683;28;19990;-80
2022/08/20 00:43:22;;;;;;;;;;;;;;;17.54;100.00;101538.03;5018830;28;20064;-80
2022/08/20 00:45:49;;;;;;;;;;;;;;;17.53;100.00;101536.31;5020563;28;19921;-80
2022/08/20 00:48:14;;;;;;;;;;;;;;;17.52;100.00;101543.47;4987567;28;19974;-80
2022/08/20 00:50:40;;;;;;;;;;;;;;;17.50;100.00;101540.03;5021164;28;20306;-79
2022/08/20 00:53:06;;;;;;;;;;;;;;;17.48;100.00;101534.78;5019844;28;19925;-81
2022/08/20 00:55:32;;;;;;;;;;;;;;;17.47;100.00;101543.78;5020925;28;19943;-80
2022/08/20 00:57:59;;;;;;;;;;;;;;;17.45;100.00;101542.16;5022469;28;20276;-80
2022/08/20 01:00:26;;;;;;;;;;;;;;;17.43;100.00;101536.03;5022978;28;19990;-80
2022/08/20 01:02:52;;;;;;;;;;;;;;;17.42;100.00;101539.69;5020713;28;20008;-81
2022/08/20 01:05:17;;;;;;;;;;;;;;;17.38;100.00;101536.34;5017749;28;19928;-80
2022/08/20 01:07:43;;;;;;;;;;;;;;;17.38;100.00;101541.69;5020736;28;20067;-80
2022/08/20 01:10:09;;;;;;;;;;;;;;;17.37;100.00;101545.31;4983477;28;20478;-80
2022/08/20 01:12:34;;;;;;;;;;;;;;;17.35;100.00;101536.53;5019967;28;19925;-80
2022/08/20 01:15:00;;;;;;;;;;;;;;;17.32;100.00;101534.91;5000257;28;19931;-80
2022/08/20 01:17:28;;;;;;;;;;;;;;;17.31;100.00;101535.84;5016340;28;19925;-80
2022/08/20 01:19:54;;;;;;;;;;;;;;;17.31;100.00;101535.84;5006634;28;19928;-81
2022/08/20 01:25:09;;;;;;;;;;;;;;;17.26;100.00;101540.63;5001432;28;19925;-80
2022/08/20 01:27:35;;;;;;;;;;;;;;;17.24;100.00;101550.59;5002073;28;19932;-81
2022/08/20 01:30:00;;;;;;;;;;;;;;;17.21;100.00;101548.94;5018892;28;19944;-80
2022/08/20 01:32:26;;;;;;;;;;;;;;;17.20;100.00;101552.59;4999928;28;20112;-80
2022/08/20 01:34:51;;;;;;;;;;;;;;;17.17;100.00;101555.44;5015216;28;19925;-80
2022/08/20 01:37:17;;;;;;;;;;;;;;;17.16;100.00;101548.38;5018583;28;19950;-80
2022/08/20 01:39:44;;;;;;;;;;;;;;;17.16;100.00;101545.69;5017589;28;19925;-80
2022/08/20 01:42:11;;;;;;;;;;;;;;;17.15;100.00;101557.34;5020781;28;19928;-80
2022/08/20 01:44:38;;;;;;;;;;;;;;;17.14;100.00;101554.78;5022858;28;19925;-80
2022/08/20 01:47:20;;;;;;;;;;;;;;;17.14;100.00;101550.28;5018977;28;19928;-81
2022/08/20 01:49:48;;;;;;;;;;;;;;;17.14;100.00;101544.06;5022221;28;19925;-81
2022/08/20 01:52:16;;;;;;;;;;;;;;;17.08;100.00;101548.00;5019101;28;19928;-81
2022/08/20 01:54:42;;;;;;;;;;;;;;;17.07;100.00;101548.97;5020361;28;19925;-81
2022/08/20 01:57:14;;;;;;;;;;;;;;;17.06;100.00;101549.91;5020349;28;19925;-81
2022/08/20 01:59:40;;;;;;;;;;;;;;;17.06;100.00;101553.44;5021450;28;19921;-81
2022/08/20 02:02:06;;;;;;;;;;;;;;;17.06;100.00;101555.25;5024860;28;19924;-81
2022/08/20 02:04:32;;;;;;;;;;;;;;;17.05;100.00;101553.56;5026722;28;20378;-80
2022/08/20 02:06:58;;;;;;;;;;;;;;;17.04;100.00;101555.34;5015578;28;19977;-81
2022/08/20 02:09:24;;;;;;;;;;;;;;;17.05;100.00;101556.22;5026525;28;20070;-81
2022/08/20 02:11:52;;;;;;;;;;;;;;;17.04;100.00;101559.81;5035540;28;20295;-80
2022/08/20 02:14:17;;;;;;;;;;;;;;;17.03;100.00;101558.13;5037841;28;19925;-81
2022/08/20 02:16:45;;;;;;;;;;;;;;;16.99;100.00;101551.22;5014086;28;20967;-81
2022/08/20 02:19:19;;;;;;;;;;;;;;;16.97;100.00;101557.53;5031949;28;20295;-81
2022/08/20 02:21:46;;;;;;;;;;;;;;;16.94;100.00;101557.69;5013432;28;20520;-81
2022/08/20 02:24:11;;;;;;;;;;;;;;;16.92;100.00;101561.41;5027215;28;19936;-81
2022/08/20 02:26:39;;;;;;;;;;;;;;;16.91;100.00;101557.03;5012140;28;19925;-81
2022/08/20 02:29:06;;;;;;;;;;;;;;;16.87;100.00;101551.00;5015756;28;19959;-81
2022/08/20 02:31:31;;;;;;;;;;;;;;;16.86;100.00;101548.41;5035726;28;19929;-80
2022/08/20 02:33:57;;;;;;;;;;;;;;;16.81;100.00;101541.56;5024836;28;19920;-80
2022/08/20 02:36:22;;;;;;;;;;;;;;;16.79;100.00;101550.63;5031604;28;19974;-80
2022/08/20 02:38:48;;;;;;;;;;;;;;;16.75;100.00;101551.75;5024238;28;19925;-79
2022/08/20 02:41:14;;;;;;;;;;;;;;;16.72;100.00;101554.63;5016954;28;20007;-80
2022/08/20 02:43:39;;;;;;;;;;;;;;;16.68;100.00;101560.13;5029915;28;19928;-79
2022/08/20 02:46:05;;;;;;;;;;;;;;;16.65;100.00;101563.00;5005672;28;19921;-80
2022/08/20 02:48:32;;;;;;;;;;;;;;;16.61;100.00;101558.78;5026101;28;19921;-80
2022/08/20 02:51:03;;;;;;;;;;;;;;;16.57;100.00;101567.97;5001949;28;20617;-80
2022/08/20 02:53:30;;;;;;;;;;;;;;;16.51;100.00;101565.66;5015072;28;20016;-80
2022/08/20 02:55:55;;;;;;;;;;;;;;;16.46;100.00;101571.28;5034391;28;19932;-81
2022/08/20 02:58:21;;;;;;;;;;;;;;;16.42;100.00;101565.25;5033737;28;19929;-80
2022/08/20 03:00:47;;;;;;;;;;;;;;;16.36;100.00;101560.25;5024600;28;20310;-82
2022/08/20 03:03:14;;;;;;;;;;;;;;;16.31;100.00;101556.13;4983601;28;20350;-81
2022/08/20 03:05:40;;;;;;;;;;;;;;;16.25;100.00;101563.53;5001061;28;19987;-81
2022/08/20 03:08:07;;;;;;;;;;;;;;;16.21;100.00;101562.00;5007390;28;20008;-80
2022/08/20 03:10:33;;;;;;;;;;;;;;;16.19;100.00;101555.03;5013912;28;19928;-81
2022/08/20 03:13:01;;;;;;;;;;;;;;;16.14;100.00;101561.47;5016973;28;20030;-80
2022/08/20 03:15:27;;;;;;;;;;;;;;;16.11;100.00;101567.03;5013412;28;20021;-81
2022/08/20 03:17:52;;;;;;;;;;;;;;;16.08;100.00;101561.84;4998251;28;19925;-80
2022/08/20 03:20:18;;;;;;;;;;;;;;;16.05;100.00;101569.16;5014063;28;19979;-80
2022/08/20 03:22:43;;;;;;;;;;;;;;;15.99;100.00;101565.03;5010448;28;19925;-80
2022/08/20 03:25:09;;;;;;;;;;;;;;;15.95;100.00;101572.38;4999201;28;20089;-82
2022/08/20 03:27:34;;;;;;;;;;;;;;;15.92;100.00;101569.00;5008079;28;20031;-81
2022/08/20 03:30:00;;;;;;;;;;;;;;;15.89;100.00;101570.00;4984525;28;20273;-80
2022/08/20 03:32:25;;;;;;;;;;;;;;;15.85;100.00;101565.81;5016011;28;20024;-80
2022/08/20 03:34:51;;;;;;;;;;;;;;;15.79;100.00;101564.31;5009390;28;19924;-80
2022/08/20 03:37:16;;;;;;;;;;;;;;;15.75;100.00;101576.16;5012810;28;20023;-80
2022/08/20 03:39:44;;;;;;;;;;;;;;;15.71;100.00;101571.91;5001341;28;20438;-80
2022/08/20 03:42:10;;;;;;;;;;;;;;;15.67;100.00;101583.69;5015763;28;19939;-81
2022/08/20 03:44:35;;;;;;;;;;;;;;;15.61;100.00;101577.78;4998358;28;20354;-81
2022/08/20 03:47:06;;;;;;;;;;;;;;;15.55;100.00;101580.78;5012895;28;20457;-81
2022/08/20 03:49:32;;;;;;;;;;;;;;;15.51;100.00;101573.88;5013470;28;19921;-81
2022/08/20 03:51:58;;;;;;;;;;;;;;;15.46;100.00;101574.13;4994920;28;20563;-80
2022/08/20 03:54:24;;;;;;;;;;;;;;;15.43;100.00;101576.09;5003663;28;19931;-82
2022/08/20 03:56:49;;;;;;;;;;;;;;;15.37;100.00;101571.09;4996725;28;19933;-80
2022/08/20 03:59:15;;;;;;;;;;;;;;;15.32;100.00;101569.53;5014657;28;19920;-81
2022/08/20 04:01:40;;;;;;;;;;;;;;;15.28;100.00;101573.31;5004816;28;19931;-81
2022/08/20 04:04:05;;;;;;;;;;;;;;;15.23;100.00;101578.03;5026457;28;19921;-81
2022/08/20 04:06:31;;;;;;;;;;;;;;;15.20;100.00;101587.06;5043445;28;20402;-79
2022/08/20 04:08:56;;;;;;;;;;;;;;;15.18;100.00;101593.41;5041324;28;20402;-81
2022/08/20 04:11:23;;;;;;;;;;;;;;;15.14;100.00;101586.53;5040786;28;19920;-80
2022/08/20 04:13:48;;;;;;;;;;;;;;;15.11;100.00;101592.03;5046279;28;20378;-80
2022/08/20 04:16:13;;;;;;;;;;;;;;;15.07;100.00;101592.19;5039783;28;19947;-81
2022/08/20 04:18:39;;;;;;;;;;;;;;;15.04;100.00;101592.34;5040664;28;19925;-81
2022/08/20 04:21:04;;;;;;;;;;;;;;;15.02;100.00;101594.25;5042604;28;19959;-81
2022/08/20 04:23:30;;;;;;;;;;;;;;;15.00;100.00;101606.78;5036222;28;20052;-82
2022/08/20 04:25:56;;;;;;;;;;;;;;;14.97;100.00;101601.59;5033679;28;19920;-81
2022/08/20 04:28:32;;;;;;;;;;;;;;;14.96;100.00;101602.56;5042525;28;19974;-81
2022/08/20 04:30:58;;;;;;;;;;;;;;;14.93;100.00;101611.56;5041915;28;19944;-81
2022/08/20 04:33:25;;;;;;;;;;;;;;;14.92;100.00;101599.19;5041971;28;19974;-81
2022/08/20 04:35:50;;;;;;;;;;;;;;;14.91;100.00;101604.59;5042277;28;19920;-80
2022/08/20 04:38:17;;;;;;;;;;;;;;;14.89;100.00;101601.16;5036442;28;19952;-80
2022/08/20 04:40:57;;;;;;;;;;;;;;;14.87;100.00;101603.88;5029616;28;19924;-81
2022/08/20 04:43:24;;;;;;;;;;;;;;;14.83;100.00;101597.00;5018860;28;21412;-81
2022/08/20 04:45:50;;;;;;;;;;;;;;;14.82;100.00;101599.75;5039286;28;19920;-81
2022/08/20 04:48:19;;;;;;;;;;;;;;;14.79;100.00;101608.75;5042020;28;19924;-81
2022/08/20 04:50:45;;;;;;;;;;;;;;;14.76;100.00;101604.44;5041595;28;19927;-82
2022/08/20 04:53:12;;;;;;;;;;;;;;;14.74;100.00;101608.13;5023901;28;19924;-83
2022/08/20 04:55:41;;;;;;;;;;;;;;;14.72;100.00;101610.84;5043802;28;19921;-80
2022/08/20 04:58:11;;;;;;;;;;;;;;;14.71;100.00;101609.09;5027992;28;19971;-82
2022/08/20 05:00:37;;;;;;;;;;;;;;;14.69;100.00;101613.66;5041745;28;19928;-81
2022/08/20 05:03:03;;;;;;;;;;;;;;;14.71;100.00;101617.09;4997308;28;19921;-82
2022/08/20 05:05:29;;;;;;;;;;;;;;;14.69;100.00;101628.78;5018857;28;19921;-80
2022/08/20 05:07:55;;;;;;;;;;;;;;;14.67;100.00;101626.22;5022314;28;19932;-82
2022/08/20 05:10:22;;;;;;;;;;;;;;;14.65;100.00;101622.75;5015466;28;19929;-80
2022/08/20 05:12:47;;;;;;;;;;;;;;;14.67;100.00;101620.88;4999830;28;19968;-82
2022/08/20 05:15:13;;;;;;;;;;;;;;;14.67;100.00;101615.56;5000162;28;20051;-82
2022/08/20 05:17:39;;;;;;;;;;;;;;;14.67;100.00;101621.72;5002285;28;19921;-82
2022/08/20 05:20:05;;;;;;;;;;;;;;;14.67;100.00;101627.06;5021226;28;19927;-82
2022/08/20 05:22:31;;;;;;;;;;;;;;;14.68;100.00;101622.59;5020960;28;20979;-80
2022/08/20 05:24:58;;;;;;;;;;;;;;;14.70;100.00;101626.03;5019745;28;19929;-80
2022/08/20 05:27:25;;;;;;;;;;;;;;;14.70;100.00;101620.72;5021860;28;19921;-80
2022/08/20 05:29:52;;;;;;;;;;;;;;;14.73;100.00;101622.34;4971379;28;19929;-80
2022/08/20 05:32:17;;;;;;;;;;;;;;;14.77;100.00;101627.47;5021410;28;19925;-81
2022/08/20 05:34:43;;;;;;;;;;;;;;;14.79;100.00;101627.41;5021397;28;20725;-81
2022/08/20 05:37:08;;;;;;;;;;;;;;;14.84;100.00;101625.38;5020994;28;19986;-81
2022/08/20 05:39:34;;;;;;;;;;;;;;;14.89;100.00;101622.47;5021007;28;19921;-81
2022/08/20 05:41:59;;;;;;;;;;;;;;;14.95;100.00;101630.16;5019041;28;20005;-80
2022/08/20 05:44:25;;;;;;;;;;;;;;;15.01;100.00;101634.31;5017817;28;19929;-81
2022/08/20 05:46:50;;;;;;;;;;;;;;;15.07;100.00;101626.88;5019840;28;20161;-81
2022/08/20 05:49:19;;;;;;;;;;;;;;;15.14;100.00;101631.88;4998802;28;19953;-81
2022/08/20 05:51:45;;;;;;;;;;;;;;;15.20;100.00;101623.56;4997729;28;21641;-82
2022/08/20 05:54:11;;;;;;;;;;;;;;;15.26;100.00;101635.69;5016730;28;19960;-81
2022/08/20 05:56:36;;;;;;;;;;;;;;;15.33;100.00;101632.63;5019149;28;19978;-81
2022/08/20 05:59:03;;;;;;;;;;;;;;;15.42;100.00;101639.25;4987266;28;20360;-81
2022/08/20 06:01:28;;;;;;;;;;;;;;;15.47;100.00;101639.00;5020434;28;19932;-81
2022/08/20 06:06:39;;;;;;;;;;;;;;;15.60;100.00;101647.25;5002674;28;20020;-81
2022/08/20 06:09:04;;;;;;;;;;;;;;;15.64;100.00;101640.81;4982074;28;20994;-81
2022/08/20 06:11:29;;;;;;;;;;;;;;;15.72;100.00;101635.91;5000933;28;19925;-81
2022/08/20 06:13:55;;;;;;;;;;;;;;;15.85;100.00;101646.75;5017118;28;19925;-82
2022/08/20 06:16:20;;;;;;;;;;;;;;;16.02;100.00;101650.34;5022723;28;19935;-81
2022/08/20 06:18:49;;;;;;;;;;;;;;;16.20;100.00;101643.09;5005479;28;19925;-81
2022/08/20 06:21:14;;;;;;;;;;;;;;;16.35;100.00;101644.00;5018333;28;20366;-82
2022/08/20 06:23:41;;;;;;;;;;;;;;;16.45;100.00;101651.53;5018436;28;19924;-81
2022/08/20 06:26:08;;;;;;;;;;;;;;;16.46;100.00;101645.22;5017795;28;20031;-82
2022/08/20 06:28:33;;;;;;;;;;;;;;;16.47;100.00;101650.50;5018648;28;19921;-82
2022/08/20 06:30:59;;;;;;;;;;;;;;;16.56;100.00;101651.75;5017793;28;19929;-81
2022/08/20 06:33:24;;;;;;;;;;;;;;;16.74;100.00;101648.94;5017618;28;20011;-81
2022/08/20 06:35:53;;;;;;;;;;;;;;;17.00;100.00;101646.53;5017894;28;19925;-82
2022/08/20 06:38:19;;;;;;;;;;;;;;;17.28;100.00;101644.91;5004670;28;19931;-82
2022/08/20 06:40:44;;;;;;;;;;;;;;;17.50;100.00;101647.97;5019988;28;19925;-82
2022/08/20 06:43:15;;;;;;;;;;;;;;;17.74;99.98;101644.72;5017832;28;19947;-84
2022/08/20 06:45:41;;;;;;;;;;;;;;;17.97;98.98;101650.41;5017994;28;21617;-80
2022/08/20 06:48:10;;;;;;;;;;;;;;;18.18;96.95;101647.31;5018529;28;19924;-82
2022/08/20 06:50:38;;;;;;;;;;;;;;;18.38;95.69;101653.22;5017175;28;19959;-79
2022/08/20 06:53:07;;;;;;;;;;;;;;;18.57;94.22;101659.06;5017391;28;20064;-79
2022/08/20 06:55:33;;;;;;;;;;;;;;;18.77;93.15;101662.25;5020001;28;19925;-80
2022/08/20 06:58:00;;;;;;;;;;;;;;;18.98;92.93;101656.38;5020197;28;19921;-80
2022/08/20 07:00:26;;;;;;;;;;;;;;;19.13;88.09;101658.03;5018748;28;19932;-81
2022/08/20 07:02:54;;;;;;;;;;;;;;;19.32;88.03;101656.75;5018844;28;20651;-80
2022/08/20 07:05:19;;;;;;;;;;;;;;;19.49;87.29;101646.63;5018168;28;19920;-79
2022/08/20 07:07:46;;;;;;;;;;;;;;;19.66;88.00;101658.88;5018488;28;20050;-79
2022/08/20 07:10:14;;;;;;;;;;;;;;;19.76;86.76;101656.38;4999090;28;19924;-79
2022/08/20 07:12:39;;;;;;;;;;;;;;;19.90;86.49;101663.47;4997964;28;20943;-79
2022/08/20 07:15:09;;;;;;;;;;;;;;;20.04;82.84;101668.72;5018552;28;20146;-79
2022/08/20 07:17:34;;;;;;;;;;;;;;;20.26;82.96;101666.28;5004790;28;19925;-79
2022/08/20 07:20:04;;;;;;;;;;;;;;;20.34;83.95;101663.88;5017663;28;20434;-78
2022/08/20 07:22:30;;;;;;;;;;;;;;;20.44;82.31;101664.06;5020324;28;19932;-78
2022/08/20 07:24:55;;;;;;;;;;;;;;;20.51;79.73;101661.75;5018876;28;19925;-77
2022/08/20 07:27:21;;;;;;;;;;;;;;;20.56;77.91;101667.66;5017900;28;19947;-78
2022/08/20 07:32:35;;;;;;;;;;;;;;;20.75;79.35;101675.19;5017518;28;19971;-78
2022/08/20 07:35:00;;;;;;;;;;;;;;;20.80;82.75;101672.16;5019237;28;20531;-78
2022/08/20 07:37:26;;;;;;;;;;;;;;;20.76;80.68;101669.69;5024073;28;19986;-78
2022/08/20 07:39:52;;;;;;;;;;;;;;;20.80;80.41;101672.16;5025615;28;20387;-78
2022/08/20 07:42:17;;;;;;;;;;;;;;;20.83;78.00;101670.09;5024441;28;19932;-78
2022/08/20 07:44:42;;;;;;;;;;;;;;;20.86;75.88;101672.56;5024653;28;20162;-79
2022/08/20 07:47:08;;;;;;;;;;;;;;;20.84;82.90;101670.97;5024842;28;19925;-78
2022/08/20 07:49:37;;;;;;;;;;;;;;;20.70;80.61;101670.16;5006068;28;20615;-78
2022/08/20 07:52:03;;;;;;;;;;;;;;;20.67;79.85;101670.41;5026216;28;19959;-78
2022/08/20 07:54:29;;;;;;;;;;;;;;;20.70;85.52;101670.16;5023213;28;19928;-77
2022/08/20 07:56:54;;;;;;;;;;;;;;;20.77;81.86;101668.72;5023913;28;20399;-79
2022/08/20 07:59:23;;;;;;;;;;;;;;;20.88;76.97;101670.59;5019169;28;20673;-80
2022/08/20 08:01:49;;;;;;;;;;;;;;;20.93;84.11;101662.22;5012287;28;19987;-79
2022/08/20 08:04:14;;;;;;;;;;;;;;;21.01;82.35;101667.84;5024399;28;20489;-81
2022/08/20 08:06:44;;;;;;;;;;;;;;;21.09;78.23;101674.47;4998720;28;20070;-77
2022/08/20 08:09:11;;;;;;;;;;;;;;;21.20;74.15;101670.94;5027643;28;19920;-77
2022/08/20 08:11:38;;;;;;;;;;;;;;;21.37;79.18;101680.38;5028008;28;19921;-76
2022/08/20 08:14:05;;;;;;;;;;;;;;;21.44;73.68;101674.41;5018481;28;19993;-77
2022/08/20 08:16:31;;;;;;;;;;;;;;;21.57;76.31;101665.34;5018425;28;19925;-76
2022/08/20 08:18:57;;;;;;;;;;;;;;;21.66;77.09;101677.22;5025356;28;19921;-77
2022/08/20 08:21:23;;;;;;;;;;;;;;;21.75;73.38;101672.97;5024751;28;19955;-76
2022/08/20 08:23:49;;;;;;;;;;;;;;;21.83;74.33;101676.78;5025177;28;20023;-76
2022/08/20 08:26:14;;;;;;;;;;;;;;;21.98;70.15;101673.81;5025304;28;19929;-76
2022/08/20 08:28:40;;;;;;;;;;;;;;;22.13;70.50;101673.53;5024165;28;19964;-76
2022/08/20 08:31:06;;;;;;;;;;;;;;;22.21;66.98;101681.84;5018079;28;19931;-76
2022/08/20 08:33:32;;;;;;;;;;;;;;;22.30;68.64;101678.41;5028176;28;20662;-76
2022/08/20 08:35:59;;;;;;;;;;;;;;;22.33;68.99;101680.84;5023963;28;20326;-76
2022/08/20 08:38:24;;;;;;;;;;;;;;;22.46;69.01;101678.00;5017649;28;20384;-77
2022/08/20 08:40:52;;;;;;;;;;;;;;;22.55;68.46;101675.53;5038657;28;20012;-76
2022/08/20 08:43:19;;;;;;;;;;;;;;;22.60;70.09;101671.44;5024416;28;21325;-76
2022/08/20 08:45:45;;;;;;;;;;;;;;;22.68;74.52;101686.13;5017529;28;19975;-76
2022/08/20 08:48:12;;;;;;;;;;;;;;;22.77;71.07;101688.09;5024755;28;20291;-76
2022/08/20 08:50:38;;;;;;;;;;;;;;;22.82;66.04;101688.53;5014785;28;20506;-77
2022/08/20 08:53:04;;;;;;;;;;;;;;;22.90;66.68;101685.19;5022307;28;20008;-76
2022/08/20 08:55:30;;;;;;;;;;;;;;;22.97;66.62;101696.31;5002019;28;20299;-76
2022/08/20 08:57:57;;;;;;;;;;;;;;;23.07;63.72;101697.25;5003825;28;19921;-77
2022/08/20 09:00:23;;;;;;;;;;;;;;;23.16;66.16;101701.84;5024745;28;20283;-77
2022/08/20 09:02:52;;;;;;;;;;;;;;;23.23;66.92;101707.59;5022086;28;19921;-77
2022/08/20 09:05:18;;;;;;;;;;;;;;;23.23;63.35;101698.63;4985372;28;20404;-76
2022/08/20 09:07:44;;;;;;;;;;;;;;;23.24;60.36;101705.72;5007617;28;19920;-77
2022/08/20 09:10:10;;;;;;;;;;;;;;;23.29;60.64;101703.50;5003498;28;19924;-77
2022/08/20 09:12:35;;;;;;;;;;;;;;;23.35;60.89;101705.69;5021400;28;20413;-77
2022/08/20 09:15:01;;;;;;;;;;;;;;;23.32;59.40;101695.16;4984926;28;19924;-76
2022/08/20 09:17:26;;;;;;;;;;;;;;;23.42;64.26;101701.47;4983416;28;20375;-77
2022/08/20 09:19:52;;;;;;;;;;;;;;;23.56;65.29;101708.38;5021429;28;19925;-77
2022/08/20 09:22:18;;;;;;;;;;;;;;;23.56;63.90;101705.66;5006582;28;19925;-77
2022/08/20 09:24:44;;;;;;;;;;;;;;;23.67;67.17;101704.72;5003034;28;19979;-78
2022/08/20 09:27:09;;;;;;;;;;;;;;;23.76;63.40;101704.91;5023629;28;20004;-77
2022/08/20 09:29:35;;;;;;;;;;;;;;;23.79;61.26;101702.78;5018487;28;19956;-77
2022/08/20 09:32:11;;;;;;;;;;;;;;;23.61;60.06;101699.84;5021122;28;19928;-77
2022/08/20 09:34:41;;;;;;;;;;;;;;;23.31;62.43;101706.97;5021418;28;20078;-76
2022/08/20 09:37:06;;;;;;;;;;;;;;;22.96;59.79;101708.09;5002761;28;20047;-77
2022/08/20 09:39:32;;;;;;;;;;;;;;;22.70;61.54;101705.78;5021697;28;19920;-77
2022/08/20 09:42:08;;;;;;;;;;;;;;;22.63;60.86;101702.72;5006191;28;19921;-78
2022/08/20 09:44:33;;;;;;;;;;;;;;;22.73;60.10;101710.91;5017931;28;19929;-77
2022/08/20 09:46:59;;;;;;;;;;;;;;;22.89;61.91;101711.31;5020158;28;19929;-77
2022/08/20 09:49:24;;;;;;;;;;;;;;;23.10;63.55;101702.38;5018690;28;19925;-77
2022/08/20 09:51:49;;;;;;;;;;;;;;;23.20;60.40;101708.69;5021115;28;19925;-77
2022/08/20 09:54:15;;;;;;;;;;;;;;;23.22;60.59;101700.47;5003561;28;20622;-77
2022/08/20 09:56:40;;;;;;;;;;;;;;;23.16;61.20;101709.94;5018819;28;19932;-80
2022/08/20 09:59:06;;;;;;;;;;;;;;;23.02;57.12;101710.28;5020295;28;20500;-77
2022/08/20 10:01:32;;;;;;;;;;;;;;;22.86;60.99;101708.88;5019834;28;19935;-78
2022/08/20 10:03:57;;;;;;;;;;;;;;;22.66;64.81;101713.25;5036580;28;20592;-78
2022/08/20 10:06:23;;;;;;;;;;;;;;;22.55;67.37;101714.16;5040171;28;19924;-79
2022/08/20 10:08:48;;;;;;;;;;;;;;;22.53;66.52;101708.03;5030296;28;19921;-78
2022/08/20 10:11:14;;;;;;;;;;;;;;;22.52;63.57;101706.31;5038453;28;19927;-79
2022/08/20 10:13:39;;;;;;;;;;;;;;;22.43;63.41;101712.47;5033375;28;20562;-79
2022/08/20 10:16:05;;;;;;;;;;;;;;;22.30;64.58;101710.78;5041216;28;20458;-78
2022/08/20 10:18:30;;;;;;;;;;;;;;;22.20;63.25;101715.19;5035560;28;19925;-77
2022/08/20 10:20:55;;;;;;;;;;;;;;;22.08;62.40;101712.53;5038709;28;19921;-77
2022/08/20 10:23:21;;;;;;;;;;;;;;;22.04;63.19;101710.19;5032098;28;19966;-78
2022/08/20 10:25:46;;;;;;;;;;;;;;;22.19;64.82;101714.34;5039454;28;19962;-78
2022/08/20 10:28:12;;;;;;;;;;;;;;;22.36;58.44;101710.25;5032894;28;20513;-78
2022/08/20 10:30:37;;;;;;;;;;;;;;;22.51;59.76;101713.53;5040684;28;20023;-78
2022/08/20 10:33:02;;;;;;;;;;;;;;;22.50;60.79;101711.81;5030923;28;19976;-78
2022/08/20 10:35:28;;;;;;;;;;;;;;;22.49;60.27;101704.69;4997780;28;19925;-79
2022/08/20 10:37:53;;;;;;;;;;;;;;;22.49;61.29;101707.41;5015824;28;19956;-78
2022/08/20 10:40:19;;;;;;;;;;;;;;;22.32;57.72;101708.78;5019294;28;20058;-79
2022/08/20 10:42:44;;;;;;;;;;;;;;;22.32;61.82;101708.78;5033314;28;20160;-80
2022/08/20 10:45:10;;;;;;;;;;;;;;;22.29;64.12;101702.78;5038420;28;19924;-80
2022/08/20 10:47:36;;;;;;;;;;;;;;;22.21;61.12;101706.09;5034043;28;19924;-80
2022/08/20 10:50:03;;;;;;;;;;;;;;;22.22;61.91;101702.47;5023989;28;19947;-80
2022/08/20 10:52:28;;;;;;;;;;;;;;;22.30;58.04;101701.81;5034979;28;19920;-80
2022/08/20 10:54:54;;;;;;;;;;;;;;;22.36;58.27;101710.25;5033869;28;19930;-80
2022/08/20 10:57:27;;;;;;;;;;;;;;;22.37;58.06;101703.00;5015626;28;19925;-80
2022/08/20 10:59:53;;;;;;;;;;;;;;;22.35;57.66;101705.00;5036143;28;19921;-80
2022/08/20 11:02:19;;;;;;;;;;;;;;;22.37;58.28;101701.19;5041550;28;20359;-79
2022/08/20 11:04:45;;;;;;;;;;;;;;;22.45;57.29;101700.53;5039838;28;19947;-79
2022/08/20 11:07:24;;;;;;;;;;;;;;;22.58;56.94;101700.41;5023496;28;19924;-80
2022/08/20 11:09:49;;;;;;;;;;;;;;;22.75;56.81;101709.78;5005212;28;20395;-79
2022/08/20 11:12:16;;;;;;;;;;;;;;;22.82;55.37;101711.97;5015463;28;19925;-79
2022/08/20 11:14:41;;;;;;;;;;;;;;;22.82;58.18;101712.81;5012630;28;19921;-79
2022/08/20 11:17:06;;;;;;;;;;;;;;;22.82;57.13;101707.41;5039685;28;20299;-79
2022/08/20 11:19:32;;;;;;;;;;;;;;;22.77;51.73;101712.38;5041452;28;19924;-79
2022/08/20 11:21:58;;;;;;;;;;;;;;;22.60;52.50;101717.31;5035612;28;19924;-80
2022/08/20 11:24:23;;;;;;;;;;;;;;;22.50;54.87;101716.34;5039643;28;19931;-79
2022/08/20 11:26:49;;;;;;;;;;;;;;;22.42;56.40;101725.06;5025151;28;19971;-78
2022/08/20 11:29:14;;;;;;;;;;;;;;;22.38;53.73;101721.78;5033968;28;19924;-80
2022/08/20 11:31:40;;;;;;;;;;;;;;;22.37;51.86;101717.38;5039435;28;20535;-79
2022/08/20 11:34:05;;;;;;;;;;;;;;;22.46;55.16;101720.28;5036035;28;19928;-78
2022/08/20 11:36:31;;;;;;;;;;;;;;;22.55;56.37;101710.59;5029535;28;20398;-80
2022/08/20 11:38:56;;;;;;;;;;;;;;;22.50;57.81;101711.81;5039751;28;19924;-80
2022/08/20 11:41:21;;;;;;;;;;;;;;;22.41;59.57;101711.72;5038680;28;19924;-79
2022/08/20 11:43:47;;;;;;;;;;;;;;;22.36;65.23;101715.66;5039402;28;19925;-82
2022/08/20 11:46:12;;;;;;;;;;;;;;;22.41;58.20;101720.66;5041496;28;20484;-78
2022/08/20 11:48:38;;;;;;;;;;;;;;;22.47;58.36;101722.00;5038914;28;20003;-78
2022/08/20 11:51:04;;;;;;;;;;;;;;;22.41;56.02;101719.81;5039233;28;19939;-78
2022/08/20 11:53:29;;;;;;;;;;;;;;;22.30;55.75;101718.00;5016091;28;19924;-78
2022/08/20 11:55:55;;;;;;;;;;;;;;;22.24;55.78;101712.09;5034611;28;20387;-78
2022/08/20 11:58:20;;;;;;;;;;;;;;;22.16;55.96;101719.13;5039568;28;19924;-78
2022/08/20 12:00:45;;;;;;;;;;;;;;;22.10;56.36;101726.72;5041250;28;19952;-78
2022/08/20 12:03:13;;;;;;;;;;;;;;;22.06;58.23;101721.72;5018220;28;19925;-78
2022/08/20 12:05:40;;;;;;;;;;;;;;;22.02;55.47;101722.94;5031629;28;19932;-79
2022/08/20 12:08:07;;;;;;;;;;;;;;;22.03;56.85;101725.50;5033018;28;19932;-78
2022/08/20 12:10:32;;;;;;;;;;;;;;;22.11;55.70;101723.06;5035674;28;19920;-78
2022/08/20 12:12:58;;;;;;;;;;;;;;;22.14;56.33;101721.06;5031766;28;20472;-77
2022/08/20 12:15:24;;;;;;;;;;;;;;;22.13;57.96;101719.38;5025210;28;19924;-78
2022/08/20 12:17:49;;;;;;;;;;;;;;;22.08;55.41;101723.31;5037612;28;19931;-79
2022/08/20 12:20:15;;;;;;;;;;;;;;;22.06;56.67;101721.72;5010539;28;20417;-79
2022/08/20 12:22:40;;;;;;;;;;;;;;;22.05;56.18;101718.16;5028732;28;20499;-79
2022/08/20 12:25:06;;;;;;;;;;;;;;;22.14;59.22;101713.84;5025691;28;20029;-78
2022/08/20 12:27:32;;;;;;;;;;;;;;;22.20;56.26;101713.38;5039717;28;20041;-79
2022/08/20 12:29:58;;;;;;;;;;;;;;;22.25;56.25;101719.25;5037657;28;20369;-79
2022/08/20 12:32:25;;;;;;;;;;;;;;;22.38;56.28;101718.22;5022090;28;20354;-83
2022/08/20 12:34:50;;;;;;;;;;;;;;;22.62;60.19;101717.19;5032241;28;21316;-83